Time;durP1;ratioP1;P1;durP2;ratioP2;P2;SDS_P1;SDS_P2;PMS_P1;PMS_P2;Temp;Humidity;BMP_temperature;BMP_pressure;BME280_temperature;BME280_humidity;BME280_pressure;Samples;Min_cycle;Max_cycle;Signal;HPM_P1;HPM_P2
2022/05/10 00:01:51;;;;;;;24.33;6.78;;;;;;;30.88;65.08;100828.31;5021609;28;70409;-34
2022/05/10 00:04:21;;;;;;;27.10;7.75;;;;;;;30.65;65.84;100791.78;5020908;28;65231;-36
2022/05/10 00:06:53;;;;;;;14.65;8.93;;;;;;;30.90;65.94;100827.03;5032189;28;69674;-34
2022/05/10 00:09:29;;;;;;;10.52;6.45;;;;;;;30.88;66.28;100829.13;5035953;28;66657;-41
2022/05/10 00:12:00;;;;;;;15.13;6.20;;;;;;;30.87;66.05;100818.50;5038898;28;70328;-35
2022/05/10 00:14:30;;;;;;;16.38;7.65;;;;;;;30.89;64.73;100816.41;5039498;28;66187;-34
2022/05/10 00:17:00;;;;;;;17.33;6.95;;;;;;;31.06;65.42;100847.28;5040129;28;70277;-36
2022/05/10 00:19:31;;;;;;;9.68;6.28;;;;;;;31.09;65.33;100846.88;5041614;28;66242;-36
2022/05/10 00:22:01;;;;;;;11.30;6.25;;;;;;;31.12;65.24;100851.84;5040695;28;70010;-37
2022/05/10 00:24:31;;;;;;;14.77;6.72;;;;;;;31.19;65.61;100861.78;5037420;28;66138;-34
2022/05/10 00:27:01;;;;;;;17.98;7.05;;;;;;;31.22;65.93;100855.91;5040447;28;70059;-35
2022/05/10 00:29:32;;;;;;;8.95;5.95;;;;;;;31.36;62.75;100862.88;5040057;28;66617;-34
2022/05/10 00:32:03;;;;;;;8.10;5.03;;;;;;;31.44;62.52;100859.06;5041665;28;69935;-34
2022/05/10 00:34:35;;;;;;;5.07;4.57;;;;;;;31.50;61.67;100861.69;5041803;28;65416;-35
2022/05/10 00:37:05;;;;;;;10.57;5.05;;;;;;;31.54;61.78;100852.06;5040897;28;69654;-34
2022/05/10 00:39:35;;;;;;;8.05;5.30;;;;;;;31.66;61.47;100864.88;5041964;28;66413;-34
2022/05/10 00:42:22;;;;;;;5.65;4.97;;;;;;;31.25;62.22;100790.41;5039853;28;70401;-34
2022/05/10 00:45:01;;;;;;;7.05;5.00;;;;;;;31.59;61.27;100835.09;5039552;28;66403;-35
2022/05/10 00:47:52;;;;;;;7.75;5.03;;;;;;;31.61;61.48;100843.84;5039444;28;69555;-34
2022/05/10 00:50:54;;;;;;;6.75;5.72;;;;;;;31.75;61.10;100860.78;5040839;28;66064;-34
2022/05/10 00:53:52;;;;;;;6.53;4.50;;;;;;;31.79;60.83;100867.44;5008736;28;68498;-35
2022/05/10 00:56:34;;;;;;;8.52;4.80;;;;;;;31.95;60.36;100872.25;5039907;28;66274;-34
2022/05/10 00:59:29;;;;;;;5.22;4.38;;;;;;;31.44;60.47;100800.25;5040474;28;70109;-35
2022/05/10 01:02:11;;;;;;;5.43;4.93;;;;;;;32.00;59.61;100869.69;5040802;28;66297;-34
2022/05/10 01:04:50;;;;;;;4.90;4.40;;;;;;;32.07;59.15;100876.91;5037782;28;69379;-35
2022/05/10 01:07:34;;;;;;;8.40;5.25;;;;;;;32.07;59.40;100869.63;5023375;28;65223;-33
2022/05/10 01:10:12;;;;;;;6.35;4.55;;;;;;;32.16;58.91;100875.56;5039597;28;69287;-35
2022/05/10 01:12:52;;;;;;;8.88;4.70;;;;;;;32.00;58.69;100841.72;5041184;28;66470;-35
2022/05/10 01:15:26;;;;;;;9.75;4.45;;;;;;;32.22;58.33;100863.78;5040327;28;70134;-34
2022/05/10 01:17:58;;;;;;;5.50;4.40;;;;;;;31.44;58.21;100740.59;5040459;28;65336;-35
2022/05/10 01:20:45;;;;;;;9.95;4.90;;;;;;;31.87;58.20;100810.13;5041095;28;69840;-34
2022/05/10 01:23:38;;;;;;;7.68;5.28;;;;;;;32.21;58.74;100872.97;5040288;28;66371;-35
2022/05/10 01:26:29;;;;;;;8.25;5.82;;;;;;;32.33;58.16;100857.56;5039438;28;69504;-33
2022/05/10 01:29:07;;;;;;;8.27;5.80;;;;;;;32.28;58.15;100849.28;5040904;28;67208;-34
2022/05/10 01:31:47;;;;;;;6.38;5.53;;;;;;;32.02;58.07;100802.47;5040445;28;69231;-34
2022/05/10 01:34:21;;;;;;;6.35;5.75;;;;;;;32.28;58.12;100838.41;5041671;28;65453;-35
2022/05/10 01:37:00;;;;;;;6.53;5.95;;;;;;;32.02;58.21;100788.06;5037074;28;70224;-34
2022/05/10 01:39:41;;;;;;;5.90;5.32;;;;;;;32.05;57.85;100787.59;5040383;28;66423;-35
2022/05/10 01:42:22;;;;;;;6.38;5.30;;;;;;;32.48;57.64;100852.56;5038600;28;70283;-35
2022/05/10 01:45:02;;;;;;;8.38;6.00;;;;;;;31.99;57.50;100764.94;5039958;28;67063;-34
2022/05/10 01:47:57;;;;;;;6.85;5.72;;;;;;;32.44;57.24;100848.63;5036193;28;68883;-34
2022/05/10 01:50:40;;;;;;;6.35;5.72;;;;;;;32.61;56.96;100848.00;5038396;28;66060;-34
2022/05/10 01:53:15;;;;;;;;;;;;;;;32.28;57.67;100843.84;5039577;28;69937;-34
2022/05/10 01:55:46;;;;;;;6.07;5.22;;;;;;;32.62;56.53;100855.88;5038958;28;65213;-33
2022/05/10 01:58:26;;;;;;;6.85;4.95;;;;;;;32.60;56.40;100830.06;5038569;28;70635;-33
2022/05/10 02:01:05;;;;;;;6.53;5.13;;;;;;;32.67;56.43;100847.06;5040248;28;66578;-34
2022/05/10 02:03:45;;;;;;;9.15;5.10;;;;;;;32.74;56.39;100847.78;5037569;28;69913;-34
2022/05/10 02:06:34;;;;;;;5.43;4.93;;;;;;;32.66;56.17;100839.97;5037403;28;66208;-34
2022/05/10 02:09:34;;;;;;;5.80;4.63;;;;;;;32.74;56.11;100852.41;5022707;28;69975;-34
2022/05/10 02:12:15;;;;;;;7.40;4.47;;;;;;;32.72;56.25;100848.00;5038254;28;66723;-34
2022/05/10 02:14:54;;;;;;;7.32;4.90;;;;;;;32.76;56.01;100856.50;5039643;28;69637;-34
2022/05/10 02:17:37;;;;;;;7.03;4.50;;;;;;;32.83;55.85;100868.09;5039198;28;66181;-33
2022/05/10 02:20:16;;;;;;;9.90;4.72;;;;;;;32.88;56.09;100889.97;5039864;28;70385;-33
2022/05/10 02:22:59;;;;;;;6.15;4.75;;;;;;;32.86;55.85;100864.91;5038447;28;66592;-35
2022/05/10 02:25:35;;;;;;;4.40;4.00;;;;;;;32.66;55.57;100818.25;5038283;28;69402;-34
2022/05/10 02:28:34;;;;;;;7.90;4.40;;;;;;;32.90;55.41;100863.41;5038616;28;65701;-33
2022/05/10 02:31:27;;;;;;;5.70;4.07;;;;;;;32.97;55.43;100859.75;5037910;28;69907;-33
2022/05/10 02:33:58;;;;;;;4.95;4.50;;;;;;;32.99;55.34;100849.44;5039291;28;66064;-34
2022/05/10 02:36:29;;;;;;;7.63;4.13;;;;;;;33.00;55.47;100857.41;5038327;28;71360;-34
2022/05/10 02:38:59;;;;;;;7.47;4.03;;;;;;;33.04;55.07;100852.31;5038412;28;66794;-33
2022/05/10 02:41:30;;;;;;;7.35;4.88;;;;;;;33.06;55.21;100855.63;5038972;28;70636;-34
2022/05/10 02:44:01;;;;;;;7.00;4.63;;;;;;;33.09;55.07;100855.97;5039499;28;66021;-34
2022/05/10 02:46:31;;;;;;;;;;;;;;;32.76;55.71;100861.13;5039659;28;70436;-32
2022/05/10 02:49:01;;;;;;;6.32;4.18;;;;;;;33.06;55.09;100861.06;5039883;28;66583;-35
2022/05/10 02:51:32;;;;;;;7.72;4.13;;;;;;;33.04;55.34;100846.88;5038256;28;70179;-34
2022/05/10 02:54:02;;;;;;;7.25;4.30;;;;;;;33.10;54.92;100851.41;5040581;28;66895;-35
2022/05/10 02:56:33;;;;;;;11.68;4.45;;;;;;;32.94;55.02;100814.84;5041322;28;70089;-34
2022/05/10 02:59:09;;;;;;;4.82;4.32;;;;;;;32.81;54.46;100788.72;5042636;28;66224;-35
2022/05/10 03:01:54;;;;;;;7.50;4.43;;;;;;;33.15;54.70;100838.75;5042318;28;69823;-34
2022/05/10 03:04:32;;;;;;;5.47;4.20;;;;;;;33.12;54.56;100827.50;5041616;28;65470;-33
2022/05/10 03:07:05;;;;;;;7.45;4.13;;;;;;;33.20;54.42;100829.88;5040675;28;69954;-34
2022/05/10 03:09:35;;;;;;;6.85;4.35;;;;;;;33.22;54.50;100822.31;5042496;28;65785;-33
2022/05/10 03:12:07;;;;;;;4.80;4.32;;;;;;;33.24;54.60;100809.31;5041757;28;70290;-34
2022/05/10 03:14:38;;;;;;;5.72;4.05;;;;;;;33.23;54.62;100810.34;5040418;28;66600;-33
2022/05/10 03:17:10;;;;;;;4.85;4.13;;;;;;;33.29;54.58;100812.16;5042595;28;69956;-33
2022/05/10 03:19:41;;;;;;;6.80;3.50;;;;;;;33.24;54.37;100793.00;5041044;28;66738;-33
2022/05/10 03:22:12;;;;;;;7.30;4.18;;;;;;;33.21;54.48;100788.03;5058184;28;69039;-33
2022/05/10 03:24:42;;;;;;;4.50;4.10;;;;;;;33.28;54.28;100799.59;5041851;28;65095;-35
2022/05/10 03:27:16;;;;;;;4.68;4.05;;;;;;;33.26;54.53;100785.41;5040359;28;71345;-35
2022/05/10 03:29:46;;;;;;;4.28;3.90;;;;;;;33.38;54.35;100799.81;5042233;28;66320;-33
2022/05/10 03:32:17;;;;;;;9.05;4.00;;;;;;;33.41;54.24;100789.53;5041555;28;69769;-33
2022/05/10 03:34:58;;;;;;;11.30;4.07;;;;;;;33.45;54.16;100787.97;5041910;28;65688;-33
2022/05/10 03:37:30;;;;;;;7.15;4.38;;;;;;;33.43;54.18;100784.66;5043940;28;70568;-33
2022/05/10 03:40:00;;;;;;;6.38;3.92;;;;;;;33.44;54.37;100761.88;5039721;28;65996;-34
2022/05/10 03:42:30;;;;;;;6.40;3.60;;;;;;;33.51;54.16;100771.53;5040703;28;69342;-32
2022/05/10 03:45:01;;;;;;;6.68;4.22;;;;;;;33.52;54.03;100773.22;5040242;28;66063;-35
2022/05/10 03:47:31;;;;;;;4.13;3.72;;;;;;;33.56;53.93;100776.28;5040120;28;69281;-34
2022/05/10 03:50:04;;;;;;;8.07;4.25;;;;;;;33.42;53.97;100745.78;5041547;28;65696;-35
2022/05/10 03:52:35;;;;;;;6.55;3.88;;;;;;;33.54;53.98;100762.09;5039034;28;69986;-35
2022/05/10 03:55:07;;;;;;;6.60;4.05;;;;;;;33.57;53.97;100756.16;5041652;28;65480;-33
2022/05/10 03:57:42;;;;;;;8.95;4.28;;;;;;;33.52;53.93;100740.59;5041182;28;69322;-33
2022/05/10 04:00:16;;;;;;;7.03;4.50;;;;;;;33.26;53.61;100684.81;5040019;28;65236;-34
2022/05/10 04:02:49;;;;;;;4.30;3.90;;;;;;;33.72;53.65;100755.66;5041384;28;69969;-34
2022/05/10 04:05:20;;;;;;;6.93;4.33;;;;;;;33.73;53.42;100758.13;5041059;28;66367;-33
2022/05/10 04:07:51;;;;;;;;;;;;;;;33.45;54.14;100752.63;5041827;28;69536;-34
2022/05/10 04:10:22;;;;;;;5.20;4.03;;;;;;;33.76;53.67;100751.38;5042308;28;65736;-34
2022/05/10 04:12:53;;;;;;;7.60;3.90;;;;;;;33.67;53.58;100731.91;5041192;28;70354;-35
2022/05/10 04:15:23;;;;;;;4.68;4.03;;;;;;;33.77;53.43;100742.16;5041353;28;66425;-34
2022/05/10 04:17:53;;;;;;;8.15;4.50;;;;;;;33.88;53.22;100748.59;5040555;28;69262;-33
2022/05/10 04:20:23;;;;;;;11.02;4.55;;;;;;;33.88;53.48;100757.59;5040857;28;66425;-34
2022/05/10 04:22:53;;;;;;;6.68;4.53;;;;;;;33.90;53.37;100744.56;5042146;28;70195;-34
2022/05/10 04:25:25;;;;;;;7.50;4.32;;;;;;;33.64;53.39;100716.06;5041873;28;66705;-34
2022/05/10 04:27:55;;;;;;;5.97;4.32;;;;;;;33.93;53.27;100751.41;5040108;28;69904;-35
2022/05/10 04:30:26;;;;;;;5.33;3.87;;;;;;;33.95;53.26;100746.56;5020081;28;66067;-34
2022/05/10 04:32:56;;;;;;;9.30;4.25;;;;;;;33.98;53.04;100744.16;5019622;28;69506;-34
2022/05/10 04:35:27;;;;;;;5.28;3.75;;;;;;;34.01;52.99;100748.28;5019846;28;66071;-34
2022/05/10 04:38:01;;;;;;;6.60;3.72;;;;;;;33.99;52.88;100734.09;5019460;28;69598;-34
2022/05/10 04:43:21;;;;;;;7.32;4.43;;;;;;;34.05;53.16;100722.28;5023079;28;69475;-34
2022/05/10 04:45:52;;;;;;;6.60;3.95;;;;;;;34.04;52.98;100709.69;5041924;28;66597;-34
2022/05/10 04:48:22;;;;;;;6.05;3.50;;;;;;;34.11;53.14;100710.41;5054358;28;68892;-35
2022/05/10 04:50:52;;;;;;;4.40;3.80;;;;;;;34.13;53.06;100705.53;5041533;28;66307;-33
2022/05/10 04:53:23;;;;;;;4.63;3.88;;;;;;;34.17;52.97;100703.16;5040548;28;70165;-34
2022/05/10 04:55:53;;;;;;;5.03;4.40;;;;;;;34.07;52.76;100671.13;5021950;28;65235;-34
2022/05/10 04:58:24;;;;;;;5.82;3.88;;;;;;;34.20;53.07;100691.75;5038828;28;70111;-34
2022/05/10 05:01:01;;;;;;;5.28;3.67;;;;;;;33.76;52.74;100616.16;5039560;28;65361;-33
2022/05/10 05:03:32;;;;;;;6.95;3.80;;;;;;;34.23;52.61;100680.38;5040416;28;69939;-37
2022/05/10 05:06:03;;;;;;;5.97;3.92;;;;;;;34.07;52.78;100662.97;5021918;28;65606;-34
2022/05/10 05:08:35;;;;;;;6.75;3.67;;;;;;;34.18;52.63;100670.22;5037387;28;70242;-37
2022/05/10 05:11:06;;;;;;;7.70;3.85;;;;;;;34.22;52.90;100665.94;5038683;28;64692;-33
2022/05/10 05:13:36;;;;;;;6.43;4.05;;;;;;;34.29;52.86;100673.09;5021397;28;68672;-34
2022/05/10 05:16:06;;;;;;;8.15;3.95;;;;;;;34.29;52.85;100673.94;5038978;28;66197;-33
2022/05/10 05:18:37;;;;;;;5.18;3.72;;;;;;;34.23;52.33;100653.97;5040073;28;70335;-34
2022/05/10 05:21:07;;;;;;;4.03;3.72;;;;;;;34.32;52.63;100662.53;5041236;28;65890;-34
2022/05/10 05:23:37;;;;;;;3.65;3.35;;;;;;;34.35;52.98;100659.34;5037855;28;68968;-40
2022/05/10 05:26:08;;;;;;;4.20;3.80;;;;;;;34.37;52.85;100648.19;5041108;28;65530;-33
2022/05/10 05:28:39;;;;;;;7.53;4.17;;;;;;;34.36;52.65;100641.91;5040714;28;71277;-34
2022/05/10 05:31:10;;;;;;;7.05;4.40;;;;;;;34.44;52.55;100633.31;5039238;28;66157;-34
2022/05/10 05:33:41;;;;;;;11.65;3.92;;;;;;;34.33;52.45;100600.75;5041292;28;69766;-34
2022/05/10 05:36:11;;;;;;;4.78;4.25;;;;;;;34.50;52.40;100619.78;5040530;28;65604;-34
2022/05/10 05:38:41;;;;;;;5.13;3.63;;;;;;;34.53;52.39;100602.94;5037639;28;69478;-34
2022/05/10 05:41:11;;;;;;;5.28;3.80;;;;;;;34.49;52.35;100586.25;5041399;28;66100;-34
2022/05/10 05:43:41;;;;;;;4.07;3.40;;;;;;;34.44;52.27;100572.59;5040359;28;69648;-33
2022/05/10 05:46:12;;;;;;;4.47;3.83;;;;;;;34.54;52.43;100586.31;5040315;28;65588;-34
2022/05/10 05:48:43;;;;;;;4.40;3.63;;;;;;;34.42;52.56;100563.84;5039477;28;69676;-34
2022/05/10 05:51:13;;;;;;;4.32;3.60;;;;;;;34.64;52.64;100589.22;5041111;28;66654;-36
2022/05/10 05:53:43;;;;;;;4.15;3.75;;;;;;;34.58;52.30;100568.44;5040250;28;70308;-34
2022/05/10 05:56:13;;;;;;;4.82;3.75;;;;;;;34.62;52.16;100564.13;5040293;28;66059;-34
2022/05/10 05:58:43;;;;;;;5.35;4.07;;;;;;;34.63;52.49;100571.25;5039637;28;70534;-34
2022/05/10 06:01:16;;;;;;;7.85;3.78;;;;;;;34.77;51.96;100581.72;5039529;28;66976;-34
2022/05/10 06:03:46;;;;;;;4.25;3.35;;;;;;;34.83;52.12;100591.63;5040829;28;69861;-34
2022/05/10 06:06:16;;;;;;;5.13;3.60;;;;;;;34.82;51.91;100579.06;5039091;28;66097;-34
2022/05/10 06:08:46;;;;;;;4.18;3.70;;;;;;;34.86;52.44;100574.78;5039724;28;69337;-33
2022/05/10 06:11:17;;;;;;;4.60;3.58;;;;;;;34.88;51.90;100572.59;5040512;28;65195;-34
2022/05/10 06:13:47;;;;;;;3.85;3.45;;;;;;;34.78;52.05;100554.25;5038914;28;70404;-34
2022/05/10 06:16:17;;;;;;;3.55;3.25;;;;;;;34.91;51.98;100567.47;5040558;28;67066;-35
2022/05/10 06:18:48;;;;;;;4.18;3.55;;;;;;;34.92;51.78;100562.84;5040542;28;69940;-35
2022/05/10 06:21:18;;;;;;;4.13;3.22;;;;;;;34.88;51.77;100550.78;5039127;28;66109;-34
2022/05/10 06:23:48;;;;;;;4.05;3.65;;;;;;;34.97;52.22;100562.09;5040543;28;70170;-34
2022/05/10 06:26:18;;;;;;;6.78;3.50;;;;;;;34.97;51.92;100562.91;5037016;28;66627;-34
2022/05/10 06:28:48;;;;;;;5.00;3.67;;;;;;;34.98;52.34;100556.38;5029286;28;69580;-34
2022/05/10 06:31:18;;;;;;;5.68;3.55;;;;;;;34.98;52.28;100545.47;5042779;28;66514;-33
2022/05/10 06:33:53;;;;;;;4.72;3.03;;;;;;;34.87;52.48;100516.47;5042543;28;70412;-35
2022/05/10 06:36:24;;;;;;;5.85;3.70;;;;;;;34.99;52.47;100533.47;5040770;28;65680;-34
2022/05/10 06:38:54;;;;;;;3.80;3.50;;;;;;;35.02;52.00;100527.53;5042454;28;69161;-34
2022/05/10 06:41:24;;;;;;;10.98;3.33;;;;;;;35.03;52.33;100529.16;5042371;28;65677;-34
2022/05/10 06:43:54;;;;;;;11.48;3.38;;;;;;;34.99;52.31;100508.94;5039289;28;70099;-33
2022/05/10 06:46:27;;;;;;;;;;;;;;;34.79;52.57;100519.63;5043413;28;66339;-34
2022/05/10 06:49:04;;;;;;;5.03;3.50;;;;;;;35.05;52.31;100513.38;5043389;28;69716;-35
2022/05/10 06:51:34;;;;;;;5.72;3.20;;;;;;;35.06;51.88;100506.06;5043431;28;66637;-33
2022/05/10 06:54:06;;;;;;;3.47;3.20;;;;;;;35.06;51.99;100506.88;5041765;28;69064;-35
2022/05/10 06:56:36;;;;;;;6.22;3.40;;;;;;;35.07;52.41;100497.59;5041996;28;66148;-34
2022/05/10 06:59:06;;;;;;;5.68;3.47;;;;;;;35.08;52.23;100496.53;5042751;28;69767;-34
2022/05/10 07:01:36;;;;;;;3.88;3.58;;;;;;;35.01;51.87;100476.81;5041053;28;66282;-34
2022/05/10 07:04:07;;;;;;;7.50;4.53;;;;;;;35.13;52.22;100491.13;5040737;28;70304;-36
2022/05/10 07:06:37;;;;;;;4.90;3.72;;;;;;;35.13;52.34;100491.13;5043010;28;67149;-33
2022/05/10 07:09:07;;;;;;;3.95;3.35;;;;;;;35.14;52.31;100487.31;5042602;28;69172;-34
2022/05/10 07:11:39;;;;;;;3.38;3.00;;;;;;;35.08;52.49;100474.72;5040404;28;66155;-34
2022/05/10 07:14:09;;;;;;;4.45;3.10;;;;;;;35.12;51.93;100481.31;5042935;28;70007;-34
2022/05/10 07:16:39;;;;;;;4.72;3.00;;;;;;;35.18;52.27;100484.06;5042847;28;66224;-34
2022/05/10 07:19:09;;;;;;;3.35;3.08;;;;;;;35.17;52.47;100480.53;5041765;28;70278;-34
2022/05/10 07:21:39;;;;;;;5.40;2.55;;;;;;;35.10;52.33;100458.94;5042914;28;65281;-33
2022/05/10 07:24:09;;;;;;;6.15;3.05;;;;;;;35.18;51.99;100478.63;5042511;28;70305;-35
2022/05/10 07:26:43;;;;;;;4.68;3.25;;;;;;;35.19;52.50;100481.09;5041564;28;66283;-34
2022/05/10 07:29:16;;;;;;;6.60;3.30;;;;;;;35.19;52.29;100475.66;5040751;28;69977;-34
2022/05/10 07:31:46;;;;;;;7.13;3.35;;;;;;;35.20;52.26;100462.84;5041692;28;66544;-34
2022/05/10 07:34:16;;;;;;;7.20;3.10;;;;;;;35.16;52.28;100464.41;5041238;28;70695;-34
2022/05/10 07:36:46;;;;;;;7.80;3.28;;;;;;;35.19;52.38;100469.34;5042739;28;66479;-34
2022/05/10 07:39:18;;;;;;;4.95;3.25;;;;;;;35.20;52.45;100471.00;5042197;28;69715;-34
2022/05/10 07:41:50;;;;;;;7.72;3.47;;;;;;;35.04;52.23;100434.59;5041172;28;66661;-34
2022/05/10 07:44:22;;;;;;;4.10;2.80;;;;;;;34.74;52.17;100375.19;5040691;28;69815;-33
2022/05/10 07:46:52;;;;;;;7.50;3.42;;;;;;;35.09;52.18;100431.94;5041161;28;66050;-33
2022/05/10 07:49:22;;;;;;;5.00;2.88;;;;;;;35.19;52.36;100463.91;5041028;28;69922;-34
2022/05/10 07:51:53;;;;;;;5.70;2.55;;;;;;;35.19;52.89;100474.81;5042405;28;65674;-33
2022/05/10 07:54:24;;;;;;;3.05;2.75;;;;;;;35.17;52.96;100466.91;5040891;28;70146;-33
2022/05/10 07:56:54;;;;;;;3.38;2.65;;;;;;;35.12;52.90;100459.50;5042929;28;66282;-34
2022/05/10 07:59:27;;;;;;;4.57;3.00;;;;;;;35.16;52.46;100468.00;5042648;28;69851;-33
2022/05/10 08:02:05;;;;;;;6.53;3.05;;;;;;;35.16;52.60;100469.88;5041165;28;66352;-34
2022/05/10 08:04:35;;;;;;;6.40;3.08;;;;;;;35.07;52.49;100467.63;5042428;28;70387;-34
2022/05/10 08:07:05;;;;;;;3.72;2.67;;;;;;;35.03;52.75;100454.75;5042308;28;65647;-35
2022/05/10 08:09:35;;;;;;;4.32;3.25;;;;;;;35.13;52.92;100477.50;5040667;28;69446;-34
2022/05/10 08:12:06;;;;;;;4.13;3.35;;;;;;;35.07;52.51;100459.44;5041948;28;65368;-34
2022/05/10 08:14:36;;;;;;;10.63;3.10;;;;;;;34.96;52.87;100449.50;5040010;28;70368;-32
2022/05/10 08:17:06;;;;;;;3.80;2.35;;;;;;;35.05;52.66;100458.88;5041457;28;66198;-35
2022/05/10 08:19:37;;;;;;;4.53;3.10;;;;;;;34.95;53.26;100447.06;5041477;28;70178;-35
2022/05/10 08:22:07;;;;;;;3.33;3.00;;;;;;;34.95;53.19;100442.41;5041488;28;66655;-34
2022/05/10 08:24:38;;;;;;;3.67;3.20;;;;;;;35.06;53.43;100454.25;5041200;28;69202;-35
2022/05/10 08:27:08;;;;;;;7.78;3.67;;;;;;;34.91;53.27;100424.94;5040120;28;66086;-34
2022/05/10 08:29:38;;;;;;;14.70;3.70;;;;;;;35.01;53.62;100446.00;5040641;28;70516;-33
2022/05/10 08:32:09;;;;;;;6.05;4.05;;;;;;;35.04;53.61;100465.38;5041295;28;66662;-35
2022/05/10 08:34:39;;;;;;;7.35;3.95;;;;;;;34.99;53.61;100468.06;5041155;28;69297;-33
2022/05/10 08:37:09;;;;;;;4.70;3.25;;;;;;;35.01;53.43;100484.97;5025753;28;66258;-34
2022/05/10 08:39:39;;;;;;;5.32;4.18;;;;;;;34.96;54.00;100470.47;5020368;28;70053;-33
2022/05/10 08:42:30;;;;;;;5.97;4.03;;;;;;;34.85;54.28;100485.91;5019985;28;66525;-35
2022/05/10 08:45:07;;;;;;;7.47;4.15;;;;;;;34.94;53.77;100492.56;5037482;28;69388;-34
2022/05/10 08:47:41;;;;;;;4.47;3.60;;;;;;;34.91;53.97;100502.06;5039580;28;66247;-34
2022/05/10 08:50:13;;;;;;;4.60;4.18;;;;;;;34.94;53.95;100500.75;5039679;28;70597;-34
2022/05/10 08:53:07;;;;;;;14.52;4.43;;;;;;;34.89;54.38;100487.06;5039093;28;66188;-35
2022/05/10 08:55:43;;;;;;;5.22;4.45;;;;;;;34.81;54.42;100471.16;5038419;28;70418;-33
2022/05/10 08:58:38;;;;;;;6.47;4.40;;;;;;;34.29;54.78;100428.88;5038909;28;65519;-34
2022/05/10 09:01:32;;;;;;;8.43;4.68;;;;;;;34.74;54.86;100508.69;5040886;28;70206;-33
2022/05/10 09:04:19;;;;;;;5.32;4.25;;;;;;;34.30;54.42;100454.22;5038924;28;66233;-34
2022/05/10 09:06:54;;;;;;;8.00;4.90;;;;;;;34.79;54.99;100530.53;5038890;28;69334;-34
2022/05/10 09:09:28;;;;;;;9.32;5.40;;;;;;;34.77;54.55;100532.69;5038552;28;65462;-34
2022/05/10 09:12:16;;;;;;;10.25;4.90;;;;;;;34.70;55.16;100528.25;5039365;28;69132;-34
2022/05/10 09:14:53;;;;;;;12.18;4.65;;;;;;;34.18;55.28;100468.78;5040278;28;65368;-34
2022/05/10 09:17:27;;;;;;;7.18;4.85;;;;;;;34.62;55.01;100545.06;5040295;28;69475;-35
2022/05/10 09:19:58;;;;;;;6.32;4.60;;;;;;;34.52;55.20;100536.75;5040063;28;65686;-35
2022/05/10 09:23:12;;;;;;;10.27;6.07;;;;;;;34.61;55.38;100554.31;5020744;28;70108;-34
2022/05/10 09:25:45;;;;;;;9.25;5.70;;;;;;;34.60;55.45;100560.84;5021127;28;66612;-34
2022/05/10 09:28:30;;;;;;;5.95;4.90;;;;;;;34.60;55.93;100566.28;5017695;28;69935;-34
2022/05/10 09:34:47;;;;;;;5.93;4.43;;;;;;;34.29;55.90;100539.69;5020244;28;70442;-34
2022/05/10 09:37:47;;;;;;;7.18;4.45;;;;;;;34.42;56.14;100574.72;5017924;28;65261;-34
2022/05/10 09:40:34;;;;;;;5.68;4.90;;;;;;;34.09;55.67;100532.91;5016520;28;69372;-35
2022/05/10 09:43:26;;;;;;;5.28;4.78;;;;;;;34.29;56.02;100575.91;5019501;28;66136;-34
2022/05/10 09:46:34;;;;;;;;;;;;;;;34.14;56.71;100595.56;5038028;28;69877;-34
2022/05/10 09:49:04;;;;;;;6.93;4.78;;;;;;;34.39;56.07;100586.13;4977066;28;66702;-33
2022/05/10 09:51:43;;;;;;;6.20;4.65;;;;;;;33.96;55.77;100511.44;5014147;28;70124;-34
2022/05/10 09:54:40;;;;;;;5.45;4.95;;;;;;;34.22;55.87;100565.22;5018592;28;66254;-36
2022/05/10 09:57:25;;;;;;;6.32;4.32;;;;;;;34.39;55.95;100591.59;5018250;28;70154;-34
2022/05/10 09:59:55;;;;;;;9.50;4.93;;;;;;;34.36;56.08;100592.09;5001543;28;65419;-33
2022/05/10 10:02:43;;;;;;;8.88;5.10;;;;;;;34.13;56.29;100566.72;5025079;28;70253;-33
2022/05/10 10:05:28;;;;;;;5.13;4.63;;;;;;;34.25;56.18;100570.16;5026501;28;65747;-33
2022/05/10 10:07:59;;;;;;;4.88;4.20;;;;;;;34.24;55.78;100568.50;5034618;28;70503;-34
2022/05/10 10:10:37;;;;;;;7.50;4.40;;;;;;;33.94;56.01;100524.50;5023999;28;65589;-33
2022/05/10 10:13:32;;;;;;;12.25;5.13;;;;;;;33.95;58.01;100591.44;5026929;28;69379;-34
2022/05/10 10:16:27;;;;;;;15.45;7.50;;;;;;;33.72;58.68;100582.38;5033091;28;65576;-34
2022/05/10 10:19:27;;;;;;;8.95;6.72;;;;;;;33.29;59.96;100572.06;5033892;28;69567;-34
2022/05/10 10:22:03;;;;;;;8.80;6.55;;;;;;;33.25;60.16;100588.03;5026442;28;66239;-35
2022/05/10 10:24:56;;;;;;;11.50;8.88;;;;;;;32.98;61.96;100595.09;5027124;28;69298;-34
2022/05/10 10:27:33;;;;;;;11.82;8.05;;;;;;;33.00;62.58;100590.28;5029535;28;65607;-35
2022/05/10 10:30:23;;;;;;;11.63;7.85;;;;;;;32.45;63.33;100508.19;5028325;28;70431;-34
2022/05/10 10:33:45;;;;;;;11.82;9.10;;;;;;;32.69;63.52;100585.03;5018122;28;66508;-34
2022/05/10 10:36:26;;;;;;;17.73;10.73;;;;;;;32.31;63.12;100525.81;4966305;28;70587;-33
2022/05/10 10:39:06;;;;;;;12.13;8.40;;;;;;;31.90;63.40;100469.78;5037285;28;66415;-34
2022/05/10 10:41:53;;;;;;;9.90;7.45;;;;;;;32.60;63.72;100607.38;5038024;28;70463;-35
2022/05/10 10:44:34;;;;;;;8.45;5.28;;;;;;;32.53;63.71;100603.94;5039342;28;66311;-34
2022/05/10 10:47:28;;;;;;;10.05;6.88;;;;;;;32.45;64.83;100596.94;5038799;28;69124;-33
2022/05/10 10:50:06;;;;;;;7.88;6.50;;;;;;;32.42;65.45;100605.56;5038748;28;65454;-35
2022/05/10 10:52:37;;;;;;;9.23;6.45;;;;;;;32.40;65.76;100605.84;5036073;28;69223;-35
2022/05/10 10:55:09;;;;;;;;;;;;;;;32.13;67.15;100607.38;5038283;28;66055;-35
2022/05/10 10:58:05;;;;;;;12.18;6.85;;;;;;;32.26;66.63;100601.69;5034460;28;70338;-36
2022/05/10 11:00:48;;;;;;;9.68;6.95;;;;;;;32.38;66.29;100610.66;5012939;28;64952;-37
2022/05/10 11:03:39;;;;;;;10.75;9.18;;;;;;;32.04;66.87;100563.47;5018761;28;70117;-36
2022/05/10 11:06:25;;;;;;;12.20;10.05;;;;;;;32.36;66.54;100601.91;5028632;28;65668;-36
2022/05/10 11:09:33;;;;;;;19.85;12.35;;;;;;;32.28;66.90;100596.84;4992294;28;68266;-36
2022/05/10 11:12:21;;;;;;;18.40;13.57;;;;;;;32.35;66.80;100594.03;5025181;28;65223;-35
2022/05/10 11:15:16;;;;;;;24.50;13.07;;;;;;;32.29;66.65;100593.09;5023904;28;70134;-33
2022/05/10 11:18:13;;;;;;;16.38;13.45;;;;;;;32.23;67.20;100597.56;5004545;28;66203;-35
2022/05/10 11:21:06;;;;;;;20.75;14.13;;;;;;;32.34;66.97;100593.19;5021443;28;70801;-36
2022/05/10 11:24:02;;;;;;;27.10;13.05;;;;;;;32.24;67.11;100596.50;5029660;28;66093;-34
2022/05/10 11:26:51;;;;;;;19.40;13.00;;;;;;;32.18;66.98;100572.19;5041498;28;70605;-35
2022/05/10 11:29:52;;;;;;;22.08;13.05;;;;;;;32.29;66.65;100601.22;5032801;28;66597;-34
2022/05/10 11:32:44;;;;;;;22.77;13.00;;;;;;;32.36;66.01;100582.91;5024194;28;69616;-35
2022/05/10 11:35:36;;;;;;;18.55;11.57;;;;;;;32.25;66.51;100587.28;5033226;28;66165;-35
2022/05/10 11:38:33;;;;;;;18.93;12.13;;;;;;;32.30;66.54;100592.03;5036944;28;69677;-35
2022/05/10 11:41:15;;;;;;;29.60;12.95;;;;;;;31.90;66.50;100511.31;5042881;28;65500;-34
2022/05/10 11:44:03;;;;;;;23.30;12.95;;;;;;;32.39;66.38;100585.16;5043253;28;69498;-34
2022/05/10 11:46:49;;;;;;;13.13;11.55;;;;;;;32.33;66.73;100586.13;5041704;28;65743;-33
2022/05/10 11:49:56;;;;;;;25.02;11.95;;;;;;;32.33;66.55;100588.00;5042798;28;69814;-35
2022/05/10 11:52:48;;;;;;;20.00;12.50;;;;;;;32.36;66.35;100590.25;5040801;28;66573;-35
2022/05/10 11:56:00;;;;;;;13.35;11.90;;;;;;;32.00;65.62;100527.03;5040081;28;69353;-34
2022/05/10 11:58:34;;;;;;;11.88;9.68;;;;;;;32.53;64.42;100560.50;5041440;28;66591;-34
2022/05/10 12:01:11;;;;;;;11.05;9.20;;;;;;;32.90;64.27;100610.72;5042484;28;70075;-34
2022/05/10 12:03:45;;;;;;;10.90;9.93;;;;;;;33.02;64.39;100610.72;5040681;28;66748;-34
2022/05/10 12:06:24;;;;;;;11.82;9.45;;;;;;;33.10;64.85;100612.22;5038823;28;69746;-35
2022/05/10 12:09:00;;;;;;;10.95;9.80;;;;;;;33.07;65.94;100623.56;5039976;28;65256;-36
2022/05/10 12:11:30;;;;;;;21.55;9.13;;;;;;;33.07;66.99;100635.28;5054641;28;70330;-35
2022/05/10 12:22:46;;;;;;;6.93;6.47;;;;;;;32.91;67.86;100658.56;5028477;28;70404;-34
2022/05/10 12:25:55;;;;;;;11.88;7.18;;;;;;;32.92;67.62;100659.38;5031611;28;66047;-33